Time;durP1;ratioP1;P1;durP2;ratioP2;P2;SDS_P1;SDS_P2;PMS_P1;PMS_P2;Temp;Humidity;BMP_temperature;BMP_pressure;BME280_temperature;BME280_humidity;BME280_pressure;Samples;Min_cycle;Max_cycle;Signal;HPM_P1;HPM_P2
2023/03/20 00:01:17;;;;;;;14.25;9.80;;;14.10;55.30;;;;;;4990838;28;20030;-72
2023/03/20 00:03:45;;;;;;;17.20;10.93;;;14.10;55.20;;;;;;4989358;28;20081;-72
2023/03/20 00:06:18;;;;;;;17.17;12.45;;;14.10;55.30;;;;;;4990082;28;20022;-72
2023/03/20 00:08:49;;;;;;;17.67;11.63;;;14.10;55.40;;;;;;4989406;28;20081;-72
2023/03/20 00:11:32;;;;;;;18.05;11.38;;;14.10;55.40;;;;;;4990532;28;20491;-72
2023/03/20 00:14:21;;;;;;;13.77;9.98;;;14.10;55.20;;;;;;4990890;28;20037;-73
2023/03/20 00:16:50;;;;;;;14.43;9.98;;;14.10;55.00;;;;;;4988824;28;20165;-73
2023/03/20 00:19:26;;;;;;;15.68;10.27;;;14.10;55.00;;;;;;4990002;28;20093;-73
2023/03/20 00:21:55;;;;;;;13.90;10.00;;;14.10;54.90;;;;;;4990151;28;21030;-72
2023/03/20 00:24:23;;;;;;;16.15;10.55;;;14.10;54.90;;;;;;4989552;28;20026;-73
2023/03/20 00:26:53;;;;;;;16.27;11.73;;;14.10;54.80;;;;;;4988575;28;20029;-73
2023/03/20 00:29:33;;;;;;;17.25;10.80;;;14.10;54.80;;;;;;4987901;28;20475;-73
2023/03/20 00:31:59;;;;;;;14.43;10.48;;;14.10;54.80;;;;;;4994047;28;20395;-72
2023/03/20 00:34:30;;;;;;;15.05;10.43;;;14.20;54.80;;;;;;4994147;28;20077;-72
2023/03/20 00:36:58;;;;;;;15.10;10.65;;;14.10;54.80;;;;;;4994076;28;20068;-72
2023/03/20 00:39:27;;;;;;;17.42;10.68;;;14.10;54.80;;;;;;4994314;28;20446;-73
2023/03/20 00:42:07;;;;;;;19.05;11.48;;;14.10;54.80;;;;;;4993069;28;20034;-72
2023/03/20 00:44:40;;;;;;;16.45;11.00;;;14.10;54.90;;;;;;4994342;28;20050;-71
2023/03/20 00:47:18;;;;;;;20.80;12.00;;;14.00;55.10;;;;;;4993914;28;20092;-72
2023/03/20 00:49:49;;;;;;;23.80;12.27;;;14.00;55.30;;;;;;4993691;28;20432;-72
2023/03/20 00:52:19;;;;;;;19.50;12.30;;;13.90;55.50;;;;;;4993818;28;20031;-72
2023/03/20 00:54:47;;;;;;;15.75;10.27;;;13.80;55.70;;;;;;4993996;28;20092;-74
2023/03/20 00:57:29;;;;;;;16.80;11.27;;;13.80;55.70;;;;;;4993913;28;20030;-74
2023/03/20 01:00:16;;;;;;;16.48;10.95;;;13.80;55.90;;;;;;4993422;28;20056;-74
2023/03/20 01:02:44;;;;;;;17.23;11.48;;;13.80;56.00;;;;;;4993885;28;20487;-72
2023/03/20 01:05:13;;;;;;;13.55;10.27;;;13.80;55.90;;;;;;4993074;28;20150;-72
2023/03/20 01:07:42;;;;;;;16.33;10.13;;;13.80;55.80;;;;;;4993469;28;20037;-72
2023/03/20 01:10:11;;;;;;;18.48;11.43;;;13.80;55.80;;;;;;4993446;28;20031;-72
2023/03/20 01:12:44;;;;;;;19.30;12.48;;;13.80;55.90;;;;;;4993512;28;20034;-72
2023/03/20 01:15:25;;;;;;;22.50;11.95;;;13.80;56.20;;;;;;4993240;28;20050;-74
2023/03/20 01:17:52;;;;;;;14.93;10.65;;;13.70;56.40;;;;;;4993397;28;20030;-72
2023/03/20 01:20:27;;;;;;;18.92;11.68;;;13.70;56.30;;;;;;4992180;28;20018;-72
2023/03/20 01:22:56;;;;;;;17.23;12.18;;;13.70;56.30;;;;;;4992863;28;20027;-72
2023/03/20 01:25:24;;;;;;;18.35;11.45;;;13.70;56.30;;;;;;4991111;28;20026;-72
2023/03/20 01:27:54;;;;;;;16.13;10.77;;;13.70;56.40;;;;;;4991354;28;20029;-72
2023/03/20 01:30:25;;;;;;;23.17;11.25;;;13.60;56.20;;;;;;4992811;28;20030;-74
2023/03/20 01:32:55;;;;;;;17.67;10.88;;;13.70;56.10;;;;;;4993192;28;20514;-72
2023/03/20 01:35:24;;;;;;;16.50;11.63;;;13.70;56.20;;;;;;4992739;28;20046;-71
2023/03/20 01:37:51;;;;;;;15.65;10.77;;;13.70;56.30;;;;;;4992255;28;20030;-72
2023/03/20 01:40:29;;;;;;;17.88;11.88;;;13.70;56.20;;;;;;4991845;28;20030;-72
2023/03/20 01:42:55;;;;;;;18.88;11.10;;;13.70;56.10;;;;;;4991779;28;20080;-72
2023/03/20 01:45:25;;;;;;;16.30;11.18;;;13.70;56.10;;;;;;4993024;28;20053;-72
2023/03/20 01:47:51;;;;;;;16.02;11.23;;;13.70;56.00;;;;;;4992141;28;20035;-72
2023/03/20 01:50:26;;;;;;;16.08;10.20;;;13.80;56.00;;;;;;4993168;28;20026;-72
2023/03/20 01:52:59;;;;;;;18.48;11.07;;;13.80;56.00;;;;;;4992170;28;20487;-72
2023/03/20 01:55:26;;;;;;;15.98;10.88;;;13.80;56.20;;;;;;4992968;28;20030;-72
2023/03/20 01:57:55;;;;;;;17.08;10.15;;;13.80;56.00;;;;;;4993000;28;20038;-72
2023/03/20 02:00:22;;;;;;;14.32;10.73;;;13.80;56.00;;;;;;4991717;28;20105;-72
2023/03/20 02:02:48;;;;;;;21.55;12.63;;;13.80;56.00;;;;;;4992498;28;21902;-72
2023/03/20 02:05:19;;;;;;;17.10;10.82;;;13.80;56.30;;;;;;4992667;28;20023;-72
2023/03/20 02:08:00;;;;;;;16.60;11.45;;;13.80;56.40;;;;;;4992770;28;20066;-72
2023/03/20 02:10:26;;;;;;;15.75;10.23;;;13.80;57.00;;;;;;4991995;28;20369;-72
2023/03/20 02:12:52;;;;;;;14.50;10.43;;;13.80;56.20;;;;;;4991442;28;20050;-72
2023/03/20 02:15:18;;;;;;;16.95;10.40;;;13.80;56.20;;;;;;4990930;28;20093;-72
2023/03/20 02:17:44;;;;;;;15.45;9.55;;;13.80;56.10;;;;;;4991768;28;20061;-72
2023/03/20 02:20:48;;;;;;;15.35;9.82;;;13.80;56.10;;;;;;4991003;28;20018;-72
2023/03/20 02:23:36;;;;;;;16.77;9.73;;;13.80;56.10;;;;;;4931541;29;20158;-72
2023/03/20 02:26:27;;;;;;;14.98;10.65;;;13.80;56.00;;;;;;4931697;29;20035;-73
2023/03/20 02:29:21;;;;;;;19.40;9.95;;;13.80;56.00;;;;;;4931836;29;20050;-72
2023/03/20 02:32:14;;;;;;;17.95;10.15;;;13.80;56.00;;;;;;4931596;29;20143;-72
2023/03/20 02:35:04;;;;;;;12.95;9.55;;;13.80;56.00;;;;;;4885437;29;20122;-72
2023/03/20 02:37:50;;;;;;;16.88;9.55;;;13.70;56.00;;;;;;4931946;29;20035;-72
2023/03/20 02:40:21;;;;;;;14.32;10.32;;;13.70;56.00;;;;;;4931149;29;20048;-72
2023/03/20 02:43:16;;;;;;;14.40;10.45;;;13.60;56.00;;;;;;4916172;29;20560;-72
2023/03/20 02:45:47;;;;;;;14.80;9.73;;;13.60;56.10;;;;;;4930236;29;20054;-72
2023/03/20 02:48:22;;;;;;;21.30;10.80;;;13.50;56.10;;;;;;4931912;29;20430;-72
2023/03/20 02:50:57;;;;;;;16.80;10.52;;;13.50;56.20;;;;;;4931704;29;20046;-72
2023/03/20 02:53:32;;;;;;;14.60;9.77;;;13.40;56.20;;;;;;4931458;29;20035;-72
2023/03/20 02:56:06;;;;;;;18.30;11.15;;;13.40;56.30;;;;;;4910042;29;20032;-72
2023/03/20 02:58:44;;;;;;;;;;;13.30;56.50;;;;;;4957058;28;20045;-72
2023/03/20 03:01:29;;;;;;;14.15;9.95;;;13.30;56.20;;;;;;4991011;28;19917;-72
2023/03/20 03:04:42;;;;;;;15.82;10.32;;;13.30;56.50;;;;;;4991770;28;20019;-72
2023/03/20 03:07:11;;;;;;;14.18;9.77;;;13.20;56.70;;;;;;4912195;29;20035;-72
2023/03/20 03:09:47;;;;;;;18.77;11.15;;;13.10;56.60;;;;;;4912567;29;20028;-72
2023/03/20 03:12:20;;;;;;;24.42;10.80;;;13.10;56.90;;;;;;4896818;29;20168;-72
2023/03/20 03:14:59;;;;;;;19.55;10.18;;;13.00;57.10;;;;;;4912642;29;20047;-72
2023/03/20 03:17:31;;;;;;;16.42;11.10;;;13.00;57.10;;;;;;4911538;29;20044;-72
2023/03/20 03:20:01;;;;;;;16.33;11.25;;;12.90;57.30;;;;;;4912547;29;20036;-72
2023/03/20 03:22:27;;;;;;;17.15;11.75;;;12.90;57.50;;;;;;4912544;29;20128;-72
2023/03/20 03:24:54;;;;;;;19.27;10.57;;;12.80;57.40;;;;;;4912206;29;20085;-72
2023/03/20 03:27:26;;;;;;;14.05;10.70;;;12.80;57.50;;;;;;4912276;29;20051;-72
2023/03/20 03:29:58;;;;;;;17.40;10.35;;;12.80;57.50;;;;;;4912427;29;20024;-72
2023/03/20 03:32:33;;;;;;;23.15;11.52;;;12.70;57.60;;;;;;4912300;29;20160;-72
2023/03/20 03:35:01;;;;;;;22.85;11.57;;;12.70;57.90;;;;;;4911810;29;20032;-72
2023/03/20 03:37:38;;;;;;;17.50;10.90;;;12.70;58.00;;;;;;4943056;28;20034;-72
2023/03/20 03:40:38;;;;;;;17.77;11.38;;;12.60;58.10;;;;;;4991470;28;20033;-72
2023/03/20 03:43:19;;;;;;;18.52;11.10;;;12.60;58.30;;;;;;4987531;28;20460;-72
2023/03/20 03:46:14;;;;;;;19.05;11.60;;;12.60;58.40;;;;;;4991239;28;20030;-72
2023/03/20 03:48:46;;;;;;;17.40;11.15;;;12.50;58.50;;;;;;4984113;28;20038;-72
2023/03/20 03:51:20;;;;;;;18.20;11.00;;;12.50;58.70;;;;;;4990683;28;20022;-72
2023/03/20 03:53:53;;;;;;;20.05;11.60;;;12.40;58.80;;;;;;4990907;28;20062;-72
2023/03/20 03:56:22;;;;;;;16.23;11.35;;;12.40;58.90;;;;;;4991028;28;20039;-72
2023/03/20 03:58:52;;;;;;;16.02;10.95;;;12.40;59.00;;;;;;4990826;28;20081;-72
2023/03/20 04:01:20;;;;;;;16.60;11.02;;;12.40;59.00;;;;;;4989830;28;20126;-72
2023/03/20 04:03:50;;;;;;;16.65;11.23;;;12.30;59.00;;;;;;4991075;28;20109;-72
2023/03/20 04:06:17;;;;;;;19.65;11.38;;;12.30;59.10;;;;;;4993566;28;20033;-72
2023/03/20 04:08:43;;;;;;;19.17;11.18;;;12.30;59.10;;;;;;4994920;28;20442;-72
2023/03/20 04:11:16;;;;;;;18.15;10.93;;;12.30;59.20;;;;;;4994801;28;20046;-72
2023/03/20 04:13:43;;;;;;;16.45;11.23;;;12.30;59.20;;;;;;4994795;28;20027;-72
2023/03/20 04:16:15;;;;;;;19.35;12.77;;;12.20;59.10;;;;;;4994068;28;20050;-72
2023/03/20 04:18:41;;;;;;;17.13;11.32;;;12.20;59.00;;;;;;4993889;28;20035;-72
2023/03/20 04:21:08;;;;;;;23.05;12.52;;;12.20;59.10;;;;;;4994454;28;20496;-72
2023/03/20 04:23:34;;;;;;;17.67;11.15;;;12.20;59.40;;;;;;4992949;28;20026;-72
2023/03/20 04:26:01;;;;;;;18.90;11.00;;;12.20;59.40;;;;;;4994525;28;20105;-72
2023/03/20 04:28:27;;;;;;;16.40;10.82;;;12.20;59.50;;;;;;4992310;28;20030;-72
2023/03/20 04:30:54;;;;;;;13.48;9.35;;;12.10;59.50;;;;;;4994295;28;20038;-72
2023/03/20 04:33:21;;;;;;;15.88;10.15;;;12.10;59.50;;;;;;4994012;28;20077;-72
2023/03/20 04:35:46;;;;;;;16.42;10.30;;;12.10;59.50;;;;;;4994398;28;20037;-72
2023/03/20 04:38:13;;;;;;;16.48;10.55;;;12.20;59.80;;;;;;4993956;28;20030;-72
2023/03/20 04:40:39;;;;;;;16.40;10.95;;;12.10;59.80;;;;;;4989539;28;20041;-72
2023/03/20 04:43:05;;;;;;;14.27;10.35;;;12.20;59.90;;;;;;4994205;28;20026;-72
2023/03/20 04:45:31;;;;;;;16.48;10.23;;;12.20;60.10;;;;;;4994125;28;20022;-72
2023/03/20 04:47:56;;;;;;;14.90;9.65;;;12.20;60.20;;;;;;4993675;28;20030;-72
2023/03/20 04:50:22;;;;;;;15.10;10.23;;;12.20;60.10;;;;;;4993900;28;20027;-72
2023/03/20 04:52:48;;;;;;;19.65;11.15;;;12.30;60.30;;;;;;4994083;28;20088;-72
2023/03/20 04:55:15;;;;;;;15.25;11.00;;;12.30;60.30;;;;;;4993903;28;20488;-72
2023/03/20 04:57:40;;;;;;;16.63;11.10;;;12.30;60.30;;;;;;4993692;28;20034;-72
2023/03/20 05:00:07;;;;;;;17.35;10.02;;;12.30;60.50;;;;;;4993875;28;20018;-72
2023/03/20 05:02:33;;;;;;;14.88;11.05;;;12.20;60.50;;;;;;4993771;28;20504;-72
2023/03/20 05:04:59;;;;;;;16.05;10.85;;;12.20;60.70;;;;;;4993732;28;20034;-72
2023/03/20 05:07:24;;;;;;;16.45;11.80;;;12.30;60.80;;;;;;4992430;28;20022;-72
2023/03/20 05:09:50;;;;;;;17.85;12.18;;;12.30;60.80;;;;;;4993339;28;20084;-72
2023/03/20 05:12:16;;;;;;;18.50;11.98;;;12.30;60.80;;;;;;4993592;28;20100;-72
2023/03/20 05:14:42;;;;;;;17.73;10.27;;;12.30;60.90;;;;;;4993566;28;20034;-72
2023/03/20 05:17:08;;;;;;;17.08;11.02;;;12.30;61.00;;;;;;4991301;28;20569;-72
2023/03/20 05:19:34;;;;;;;17.98;11.27;;;12.40;60.90;;;;;;4993171;28;20369;-72
2023/03/20 05:22:00;;;;;;;15.30;10.65;;;12.40;61.00;;;;;;4993413;28;20041;-72
2023/03/20 05:24:27;;;;;;;22.50;10.82;;;12.40;60.90;;;;;;4992312;28;20027;-72
2023/03/20 05:26:54;;;;;;;17.48;10.45;;;12.50;61.00;;;;;;4993159;28;20476;-72
2023/03/20 05:29:20;;;;;;;15.15;9.80;;;12.50;61.00;;;;;;4993267;28;20030;-73
2023/03/20 05:31:46;;;;;;;17.40;10.20;;;12.50;61.00;;;;;;4993347;28;20031;-72
2023/03/20 05:34:12;;;;;;;18.08;11.30;;;12.50;60.90;;;;;;4992923;28;20057;-72
2023/03/20 05:36:38;;;;;;;23.83;13.88;;;12.60;60.90;;;;;;4993232;28;20019;-72
2023/03/20 05:39:05;;;;;;;18.55;12.02;;;12.60;60.90;;;;;;4993121;28;20074;-72
2023/03/20 05:41:31;;;;;;;20.25;12.43;;;12.70;60.80;;;;;;4992934;28;20025;-72
2023/03/20 05:43:56;;;;;;;21.58;12.85;;;12.70;60.70;;;;;;4992748;28;20018;-72
2023/03/20 05:46:22;;;;;;;18.80;12.82;;;12.70;60.60;;;;;;4987660;28;20029;-72
2023/03/20 05:48:48;;;;;;;21.25;12.85;;;12.70;60.50;;;;;;4991557;28;20495;-72
2023/03/20 05:51:14;;;;;;;22.02;12.93;;;12.80;60.40;;;;;;4992915;28;20033;-72
2023/03/20 05:53:40;;;;;;;29.23;14.65;;;12.80;60.30;;;;;;4992861;28;20085;-72
2023/03/20 05:56:06;;;;;;;29.30;15.82;;;12.90;60.30;;;;;;4993921;28;20046;-72
2023/03/20 05:58:33;;;;;;;28.85;17.92;;;12.90;60.20;;;;;;4992523;28;20022;-72
2023/03/20 06:00:59;;;;;;;42.70;20.73;;;12.90;60.10;;;;;;4993754;28;20117;-72
2023/03/20 06:03:25;;;;;;;33.45;18.40;;;12.90;60.00;;;;;;4992490;28;20114;-72
2023/03/20 06:05:51;;;;;;;30.92;16.88;;;13.00;60.00;;;;;;4992382;28;20519;-72
2023/03/20 06:08:17;;;;;;;24.00;13.05;;;13.00;60.00;;;;;;4992551;28;20105;-72
2023/03/20 06:10:42;;;;;;;26.05;12.88;;;13.00;60.00;;;;;;4991594;28;20061;-72
2023/03/20 06:13:08;;;;;;;19.13;11.65;;;13.00;60.00;;;;;;4993639;28;20034;-72
2023/03/20 06:15:34;;;;;;;18.60;10.57;;;13.10;60.00;;;;;;4994196;28;20045;-72
2023/03/20 06:18:00;;;;;;;18.70;10.50;;;13.10;60.00;;;;;;4992999;28;20129;-72
2023/03/20 06:20:26;;;;;;;15.85;10.45;;;13.10;60.00;;;;;;4993287;28;20045;-72
2023/03/20 06:22:52;;;;;;;18.98;10.88;;;13.20;60.70;;;;;;4993372;28;20026;-72
2023/03/20 06:25:19;;;;;;;27.60;10.75;;;13.20;60.00;;;;;;4993175;28;20487;-72
2023/03/20 06:27:46;;;;;;;19.92;10.23;;;13.30;60.00;;;;;;4992618;28;20057;-72
2023/03/20 06:30:13;;;;;;;20.10;10.30;;;13.30;60.00;;;;;;4992964;28;20034;-73
2023/03/20 06:32:40;;;;;;;18.35;9.80;;;13.40;60.00;;;;;;4991822;28;20391;-73
2023/03/20 06:35:06;;;;;;;19.67;11.65;;;13.40;59.90;;;;;;4993178;28;20093;-73
2023/03/20 06:37:33;;;;;;;18.65;10.65;;;13.40;60.00;;;;;;4990811;28;20026;-73
2023/03/20 06:39:58;;;;;;;25.00;11.13;;;13.40;60.00;;;;;;4992753;28;20479;-73
2023/03/20 06:42:24;;;;;;;23.73;11.48;;;13.50;59.90;;;;;;4991516;28;20030;-72
2023/03/20 06:44:50;;;;;;;15.95;11.05;;;13.50;60.00;;;;;;4992903;28;20080;-73
2023/03/20 06:47:16;;;;;;;16.45;9.52;;;13.50;60.10;;;;;;4991868;28;20097;-73
2023/03/20 06:49:42;;;;;;;20.13;10.68;;;13.60;60.10;;;;;;4992826;28;20042;-73
2023/03/20 06:52:18;;;;;;;17.02;10.07;;;13.60;60.20;;;;;;4992838;28;20030;-73
2023/03/20 06:54:44;;;;;;;26.45;9.95;;;13.60;60.20;;;;;;4992260;28;20027;-73
2023/03/20 06:57:10;;;;;;;29.95;11.10;;;13.70;60.20;;;;;;4992710;28;20058;-73
2023/03/20 06:59:36;;;;;;;19.67;9.27;;;13.70;60.20;;;;;;4992606;28;20026;-73
2023/03/20 07:02:03;;;;;;;19.92;10.25;;;13.70;60.30;;;;;;4992357;28;20026;-73
2023/03/20 07:04:29;;;;;;;14.48;9.55;;;13.80;60.40;;;;;;4992577;28;20501;-73
2023/03/20 07:06:55;;;;;;;18.38;8.88;;;13.90;60.50;;;;;;4992640;28;20030;-73
2023/03/20 07:09:22;;;;;;;14.68;9.13;;;14.00;60.50;;;;;;4992974;28;20060;-73
2023/03/20 07:11:48;;;;;;;18.77;10.35;;;14.10;60.60;;;;;;4992425;28;20082;-73
2023/03/20 07:14:14;;;;;;;18.25;10.85;;;14.20;60.40;;;;;;4992431;28;20049;-73
2023/03/20 07:16:40;;;;;;;21.13;9.20;;;14.40;60.20;;;;;;4991736;28;20081;-73
2023/03/20 07:19:06;;;;;;;14.07;9.23;;;14.50;59.90;;;;;;4992284;28;20042;-73
2023/03/20 07:21:32;;;;;;;20.02;9.55;;;14.60;59.80;;;;;;4992197;28;20427;-73
2023/03/20 07:23:58;;;;;;;15.52;9.35;;;14.70;59.60;;;;;;4992323;28;20029;-73
2023/03/20 07:26:24;;;;;;;17.23;8.60;;;14.90;59.60;;;;;;4992516;28;20026;-73
2023/03/20 07:28:50;;;;;;;14.30;8.98;;;15.00;59.40;;;;;;4992454;28;20058;-73
2023/03/20 07:31:21;;;;;;;15.35;8.55;;;15.20;59.10;;;;;;4992556;28;20066;-72
2023/03/20 07:33:47;;;;;;;17.10;9.18;;;15.40;58.80;;;;;;4993251;28;20421;-73
2023/03/20 07:36:13;;;;;;;15.55;9.45;;;15.50;58.40;;;;;;4992532;28;20035;-73
2023/03/20 07:38:39;;;;;;;19.73;9.40;;;15.70;57.80;;;;;;4992390;28;20121;-73
2023/03/20 07:41:05;;;;;;;16.13;9.48;;;15.80;57.60;;;;;;4995380;28;20023;-73
2023/03/20 07:43:31;;;;;;;14.07;9.10;;;15.90;57.20;;;;;;4996540;28;20027;-73
2023/03/20 07:45:57;;;;;;;12.48;9.55;;;16.00;56.90;;;;;;4996195;28;20514;-73
2023/03/20 07:48:22;;;;;;;16.80;9.40;;;16.00;56.50;;;;;;4995385;28;20030;-73
2023/03/20 07:50:48;;;;;;;14.48;9.90;;;16.10;56.50;;;;;;4996530;28;20037;-73
2023/03/20 07:53:14;;;;;;;13.98;8.48;;;16.10;56.10;;;;;;4996445;28;20388;-73
2023/03/20 07:55:40;;;;;;;13.55;9.40;;;16.10;56.10;;;;;;4996234;28;20417;-73
2023/03/20 07:58:07;;;;;;;11.70;8.65;;;16.10;56.00;;;;;;4996244;28;20030;-73
2023/03/20 08:00:33;;;;;;;18.67;8.40;;;16.10;55.90;;;;;;4996129;28;20113;-73
2023/03/20 08:02:59;;;;;;;16.52;9.77;;;16.10;55.90;;;;;;4996903;28;20105;-73
2023/03/20 08:05:25;;;;;;;13.90;9.77;;;16.20;55.80;;;;;;4996662;28;20080;-73
2023/03/20 08:07:51;;;;;;;13.27;9.68;;;16.10;55.80;;;;;;4996218;28;20432;-73
2023/03/20 08:10:16;;;;;;;18.00;9.23;;;16.00;55.70;;;;;;4996076;28;20069;-73
2023/03/20 08:12:42;;;;;;;13.60;8.55;;;16.00;55.90;;;;;;4993921;28;20105;-73
2023/03/20 08:15:08;;;;;;;18.92;10.75;;;16.00;56.20;;;;;;4995401;28;20106;-73
2023/03/20 08:17:34;;;;;;;15.68;9.45;;;15.90;56.40;;;;;;4993449;28;20042;-73
2023/03/20 08:20:00;;;;;;;14.23;8.85;;;16.00;56.50;;;;;;4995856;28;20034;-73
2023/03/20 08:22:26;;;;;;;19.08;10.35;;;16.10;56.40;;;;;;4986185;28;20030;-73
2023/03/20 08:24:52;;;;;;;14.43;8.77;;;16.20;56.50;;;;;;4995891;28;20468;-73
2023/03/20 08:27:17;;;;;;;18.40;9.40;;;16.30;56.50;;;;;;4995839;28;20129;-73
2023/03/20 08:29:43;;;;;;;19.33;9.25;;;16.50;56.20;;;;;;4995601;28;20027;-73
2023/03/20 08:32:09;;;;;;;14.95;9.65;;;16.70;56.10;;;;;;4995484;28;20038;-73
2023/03/20 08:34:35;;;;;;;12.00;8.25;;;16.90;55.50;;;;;;4995584;28;20071;-73
2023/03/20 08:37:03;;;;;;;15.40;9.20;;;17.10;55.40;;;;;;4995645;28;20392;-73
2023/03/20 08:39:29;;;;;;;18.45;9.25;;;17.20;55.00;;;;;;4994522;28;20033;-73
2023/03/20 08:41:55;;;;;;;12.68;8.57;;;17.40;54.50;;;;;;4994296;28;20084;-73
2023/03/20 08:44:21;;;;;;;12.30;8.85;;;17.50;54.40;;;;;;4995419;28;20166;-73
2023/03/20 08:46:47;;;;;;;14.40;9.13;;;17.60;54.20;;;;;;4995064;28;20026;-73
2023/03/20 08:49:12;;;;;;;21.83;10.00;;;17.70;53.90;;;;;;4994964;28;20037;-73
2023/03/20 08:51:38;;;;;;;16.88;10.05;;;17.70;53.50;;;;;;4994803;28;20054;-73
2023/03/20 08:54:04;;;;;;;19.20;9.35;;;17.70;53.30;;;;;;4995249;28;20153;-73
2023/03/20 08:56:30;;;;;;;14.43;10.38;;;17.70;53.30;;;;;;4995317;28;20026;-73
2023/03/20 08:58:55;;;;;;;16.77;10.55;;;17.70;53.10;;;;;;4994984;28;20046;-73
2023/03/20 09:01:21;;;;;;;18.33;10.05;;;17.50;53.00;;;;;;4994986;28;20019;-73
2023/03/20 09:03:47;;;;;;;13.32;8.23;;;17.50;53.10;;;;;;4995087;28;20396;-73
2023/03/20 09:06:13;;;;;;;17.83;9.68;;;17.50;53.50;;;;;;4992645;28;20398;-73
2023/03/20 09:08:38;;;;;;;17.40;9.77;;;17.50;53.50;;;;;;4995053;28;20038;-73
2023/03/20 09:11:06;;;;;;;17.02;10.25;;;17.50;53.30;;;;;;4992761;28;20035;-73
2023/03/20 09:13:32;;;;;;;16.95;9.73;;;17.50;53.40;;;;;;4993698;28;20027;-73
2023/03/20 09:15:57;;;;;;;14.10;9.40;;;17.60;53.60;;;;;;4994281;28;20476;-73
2023/03/20 09:18:23;;;;;;;14.00;9.10;;;17.60;53.70;;;;;;4994831;28;20070;-73
2023/03/20 09:20:49;;;;;;;19.90;9.05;;;17.70;53.70;;;;;;4994860;28;20057;-73
2023/03/20 09:23:16;;;;;;;18.65;8.95;;;17.80;53.70;;;;;;4994614;28;20106;-73
2023/03/20 09:25:42;;;;;;;24.80;10.35;;;18.00;54.20;;;;;;4994510;28;20045;-73
2023/03/20 09:28:08;;;;;;;17.40;9.63;;;18.10;53.00;;;;;;4993518;28;20030;-73
2023/03/20 09:30:33;;;;;;;16.92;10.07;;;18.20;53.00;;;;;;4994863;28;20079;-73
2023/03/20 09:33:00;;;;;;;19.98;9.82;;;18.30;52.70;;;;;;4994440;28;20078;-73
2023/03/20 09:35:25;;;;;;;11.85;8.07;;;18.30;52.20;;;;;;4994129;28;20042;-73
2023/03/20 09:37:51;;;;;;;11.68;7.60;;;18.40;52.50;;;;;;4994283;28;20504;-73
2023/03/20 09:40:43;;;;;;;10.70;8.05;;;18.50;52.30;;;;;;4994360;28;20105;-73
2023/03/20 09:43:22;;;;;;;16.60;9.02;;;18.60;51.70;;;;;;4985322;28;20096;-73
2023/03/20 09:46:00;;;;;;;11.57;7.60;;;18.70;51.20;;;;;;4993852;28;20030;-73
2023/03/20 09:48:40;;;;;;;10.35;8.07;;;18.90;51.00;;;;;;4992918;28;20033;-73
2023/03/20 09:51:43;;;;;;;15.13;7.95;;;18.90;50.50;;;;;;4994085;28;20105;-73
2023/03/20 09:54:27;;;;;;;16.52;9.13;;;19.10;50.90;;;;;;4994141;28;20034;-73
2023/03/20 09:56:56;;;;;;;22.13;8.05;;;19.20;50.50;;;;;;4991995;28;20022;-73
2023/03/20 09:59:23;;;;;;;19.15;9.95;;;19.20;50.20;;;;;;4993946;28;20036;-73
2023/03/20 10:01:52;;;;;;;31.05;10.63;;;19.20;50.10;;;;;;4992928;28;20491;-73
2023/03/20 10:04:18;;;;;;;27.60;8.65;;;19.20;50.00;;;;;;4993500;28;20038;-74
2023/03/20 10:06:44;;;;;;;17.10;8.98;;;19.20;50.20;;;;;;4993096;28;20026;-73
2023/03/20 10:09:36;;;;;;;9.88;7.50;;;19.40;50.00;;;;;;4993753;28;20542;-73
2023/03/20 10:12:32;;;;;;;18.48;8.00;;;19.50;50.20;;;;;;4988536;28;20045;-73
2023/03/20 10:15:22;;;;;;;13.18;7.03;;;19.60;49.80;;;;;;4993224;28;20026;-73
2023/03/20 10:18:15;;;;;;;16.88;7.30;;;19.80;49.60;;;;;;4992551;28;20041;-73
2023/03/20 10:21:01;;;;;;;15.05;7.88;;;19.90;49.10;;;;;;4993429;28;20030;-73
2023/03/20 10:23:47;;;;;;;10.30;7.35;;;20.10;48.90;;;;;;4991633;28;20026;-73
2023/03/20 10:26:16;;;;;;;12.32;7.75;;;20.10;48.10;;;;;;4992095;28;20057;-73
2023/03/20 10:28:54;;;;;;;14.10;7.25;;;20.10;47.80;;;;;;4993515;28;20026;-73
2023/03/20 10:31:26;;;;;;;14.73;7.10;;;20.20;47.60;;;;;;4991386;28;20129;-73
2023/03/20 10:34:19;;;;;;;18.48;7.82;;;20.30;47.90;;;;;;4993480;28;20030;-73
2023/03/20 10:37:05;;;;;;;11.07;7.85;;;20.30;48.20;;;;;;4993441;28;20034;-73
2023/03/20 10:39:53;;;;;;;9.38;6.93;;;20.30;47.60;;;;;;4982322;28;20105;-73
2023/03/20 10:42:28;;;;;;;10.25;7.60;;;20.30;47.00;;;;;;4992158;28;20037;-73
2023/03/20 10:45:13;;;;;;;11.85;8.07;;;20.30;46.70;;;;;;4991310;28;20030;-73
2023/03/20 10:47:40;;;;;;;11.65;7.10;;;20.20;47.20;;;;;;4991273;28;20504;-73
2023/03/20 10:50:31;;;;;;;10.75;7.28;;;20.20;47.20;;;;;;4992528;28;20161;-73
2023/03/20 10:52:58;;;;;;;7.70;6.63;;;20.20;47.30;;;;;;4992465;28;20096;-73
2023/03/20 10:55:37;;;;;;;8.70;6.57;;;20.40;47.60;;;;;;4992584;28;20023;-73
2023/03/20 10:58:22;;;;;;;21.00;6.95;;;20.40;47.10;;;;;;4990824;28;20076;-73
2023/03/20 11:00:49;;;;;;;12.85;7.30;;;20.50;47.00;;;;;;4992773;28;20037;-73
2023/03/20 11:03:29;;;;;;;9.45;6.57;;;20.60;46.30;;;;;;4991720;28;20384;-73
2023/03/20 11:06:00;;;;;;;11.05;6.97;;;20.60;46.40;;;;;;4992303;28;20030;-73
2023/03/20 11:08:34;;;;;;;10.27;6.30;;;20.70;46.30;;;;;;4991877;28;20030;-73
2023/03/20 11:11:01;;;;;;;;;;;20.70;45.80;;;;;;4989875;28;20034;-73
2023/03/20 11:13:40;;;;;;;9.57;5.95;;;20.70;47.10;;;;;;4991841;28;19960;-73
2023/03/20 11:16:20;;;;;;;8.38;5.70;;;20.70;45.70;;;;;;4992250;28;20046;-73
2023/03/20 11:18:51;;;;;;;7.97;5.93;;;20.80;45.70;;;;;;4991314;28;20088;-73
2023/03/20 11:21:27;;;;;;;11.80;6.65;;;20.80;45.60;;;;;;4992706;28;20375;-74
2023/03/20 11:23:54;;;;;;;9.32;6.20;;;20.80;44.80;;;;;;4992980;28;20068;-74
2023/03/20 11:26:33;;;;;;;8.95;6.22;;;20.70;45.30;;;;;;4992614;28;20042;-74
2023/03/20 11:28:59;;;;;;;10.23;6.60;;;20.60;45.20;;;;;;4992693;28;20456;-73
2023/03/20 11:31:35;;;;;;;11.77;5.72;;;20.60;45.10;;;;;;4992657;28;20042;-73
2023/03/20 11:34:13;;;;;;;24.80;5.70;;;20.50;45.30;;;;;;4990693;28;20117;-73
2023/03/20 11:36:57;;;;;;;18.80;6.32;;;20.40;45.70;;;;;;4992325;28;20038;-74
2023/03/20 11:39:26;;;;;;;11.68;6.18;;;20.30;45.60;;;;;;4991708;28;20049;-73
2023/03/20 11:41:55;;;;;;;7.57;5.75;;;20.30;46.10;;;;;;4992470;28;20026;-74
2023/03/20 11:44:29;;;;;;;10.73;5.40;;;20.30;45.90;;;;;;4992485;28;20092;-73
2023/03/20 11:47:00;;;;;;;;;;;20.30;46.10;;;;;;4992528;28;20034;-74
2023/03/20 11:49:26;;;;;;;8.55;5.15;;;20.40;47.00;;;;;;4991123;28;19919;-73
2023/03/20 11:51:55;;;;;;;13.60;5.85;;;20.40;45.90;;;;;;4992521;28;20030;-74
2023/03/20 11:54:23;;;;;;;7.65;5.60;;;20.40;45.70;;;;;;4992330;28;20030;-74
2023/03/20 11:57:00;;;;;;;8.60;5.20;;;20.40;45.70;;;;;;4992328;28;20109;-73
2023/03/20 11:59:32;;;;;;;7.60;5.13;;;20.40;45.70;;;;;;4992185;28;20037;-73
2023/03/20 12:02:01;;;;;;;13.60;5.50;;;20.30;45.40;;;;;;4992352;28;20045;-73
2023/03/20 12:04:40;;;;;;;6.00;4.88;;;20.20;45.70;;;;;;4992212;28;20031;-73
2023/03/20 12:07:26;;;;;;;7.82;5.55;;;20.10;45.90;;;;;;4991270;28;20030;-74
2023/03/20 12:09:56;;;;;;;6.40;5.22;;;19.90;46.10;;;;;;4988454;28;20058;-74
2023/03/20 12:12:47;;;;;;;6.50;5.25;;;19.90;46.40;;;;;;4990658;28;20479;-73
2023/03/20 12:15:48;;;;;;;6.93;4.40;;;19.90;46.50;;;;;;4991662;28;20488;-74
2023/03/20 12:18:47;;;;;;;10.32;5.82;;;19.80;46.70;;;;;;4932121;29;20076;-73
2023/03/20 12:21:25;;;;;;;10.02;4.95;;;19.70;46.50;;;;;;4931643;29;20076;-74
2023/03/20 12:23:58;;;;;;;6.63;5.50;;;19.70;46.60;;;;;;4921189;29;20032;-73
2023/03/20 12:26:36;;;;;;;9.40;4.80;;;19.60;46.60;;;;;;4933634;29;20031;-74
2023/03/20 12:29:09;;;;;;;17.08;5.43;;;19.50;47.10;;;;;;4935754;29;20468;-74
2023/03/20 12:31:44;;;;;;;11.85;6.25;;;19.40;47.30;;;;;;4935651;29;20032;-74
2023/03/20 12:34:34;;;;;;;11.05;4.72;;;19.40;47.30;;;;;;4935677;29;20127;-74
2023/03/20 12:37:01;;;;;;;14.30;5.38;;;19.30;47.40;;;;;;4935607;29;20066;-75
2023/03/20 12:39:37;;;;;;;20.58;6.72;;;19.30;47.50;;;;;;4935462;29;20066;-74
2023/03/20 12:42:03;;;;;;;10.07;4.72;;;19.30;47.70;;;;;;4935565;29;20456;-74
2023/03/20 12:44:38;;;;;;;9.13;5.03;;;19.30;47.80;;;;;;4935443;29;20118;-74
2023/03/20 12:47:24;;;;;;;10.77;5.18;;;19.30;47.70;;;;;;4934945;29;20212;-74
2023/03/20 12:50:08;;;;;;;7.90;4.93;;;19.30;47.60;;;;;;4911540;29;20061;-74
2023/03/20 12:52:57;;;;;;;18.80;5.25;;;19.40;47.70;;;;;;4935529;28;20035;-74
2023/03/20 12:55:55;;;;;;;18.95;5.65;;;19.40;47.60;;;;;;4982569;28;20050;-74